KOJC

Details ICAO KOJC
Name Olathe - Johnson Co Exec
Region United States
Timezone America/Chicago (UTC-5.0)
Plans Departing 43
Arriving 18
Stats Elevation 1,096 ft / 334 m (AMSL)
Location 38.847597° -94.737583°
Runways 1
Magnetic Variation 1.745° E
Sunrise 2018-05-21 11:03:10 UTC / 2018-05-21 06:03:10 Local
Sunset 2018-05-22 01:30:49 UTC / 2018-05-21 20:30:49 Local
Advertisement - Login to hide

Runways

ID Width Length Bearing (true) Bearing (mag) Surface Threshold Offset Overrun Length
18 75 ft / 23 m 4,105 ft / 1,251 m 180.13° 178.39° Concrete 0 ft / 0 m 0 ft / 0 m
36 75 ft / 23 m 4,105 ft / 1,251 m 0.13° 358.39° Concrete 0 ft / 0 m 0 ft / 0 m

Approach Navaids

Runway Type Ident Frequency Range Bearing (true) Bearing (mag) Slope Elevation
18 Localiser IOJC 111.10 MHz 18 nm / 33 km 180.13° 178.39° - 1,096 ft / 334 m (AMSL)
36 Localiser IPKX 108.30 MHz 18 nm / 33 km 0.13° 358.39° - 1,096 ft / 334 m (AMSL)

Map

Weather


0- 5 10 15 20 25 30 35+ Temperature / ° C

Clouds and Precipitation
Forecast for 2018-05-22 00:00 UTC. Updated 6 hours ago

Ground ~20,000 ft ~40,000 ft Winds

METAR

KOJC 220453Z AUTO 12003KT 10SM CLR 17/15 A3004 RMK AO2 SLP167 T01720150

TAF

Not found

Frequencies

Recorded 119.35 MHz ATIS
Unicom 122.95 MHz UNICOM
Tower 126.00 MHz EXECUTIVE TWR
Unicom 126.00 MHz CTAF
Ground 121.60 MHz GND
Approach 118.90 MHz KANSAS CITY APP/DEP
Warning: Do not use this data for real-world aviation or navigation. No guarantee of current accuracy is given.